Time;durP1;ratioP1;P1;durP2;ratioP2;P2;SDS_P1;SDS_P2;PMS_P1;PMS_P2;Temp;Humidity;BMP_temperature;BMP_pressure;BME280_temperature;BME280_humidity;BME280_pressure;Samples;Min_cycle;Max_cycle;Signal;HPM_P1;HPM_P2
2022/06/12 18:29:23;;;;;;;0.03;0.03;;;26.00;69.20;;;;;;5135558;27;20761;-96
2022/06/12 18:31:52;;;;;;;0.55;0.55;;;25.50;69.40;;;;;;5154846;23;20049;-95
2022/06/12 18:34:18;;;;;;;0.50;0.50;;;25.40;69.60;;;;;;5052498;28;20463;-96
2022/06/12 18:36:44;;;;;;;0.63;0.63;;;25.40;69.50;;;;;;5051154;28;20025;-94
2022/06/12 18:39:10;;;;;;;0.57;0.55;;;25.40;69.70;;;;;;5050843;28;20025;-96
2022/06/12 18:41:37;;;;;;;0.63;0.63;;;25.40;69.90;;;;;;5053522;28;20026;-96
2022/06/12 18:44:03;;;;;;;0.63;0.63;;;25.40;70.00;;;;;;5052713;28;20137;-96
2022/06/12 18:46:28;;;;;;;2.83;0.65;;;25.40;70.00;;;;;;5051478;28;20017;-91
2022/06/12 18:48:56;;;;;;;0.85;0.77;;;25.50;69.90;;;;;;5049482;28;20469;-91
2022/06/12 18:51:22;;;;;;;0.88;0.82;;;25.50;69.90;;;;;;5049830;28;20036;-90
2022/06/12 18:53:48;;;;;;;0.73;0.45;;;25.50;69.60;;;;;;5051146;28;20045;-91
2022/06/12 18:56:14;;;;;;;0.70;0.68;;;25.50;69.70;;;;;;5050102;28;20022;-90
2022/06/12 18:58:40;;;;;;;0.63;0.60;;;25.50;69.70;;;;;;5049831;28;20025;-90
2022/06/12 19:01:06;;;;;;;0.13;0.10;;;25.60;69.60;;;;;;5049607;28;20021;-90
2022/06/12 19:03:32;;;;;;;1.83;1.00;;;25.60;69.40;;;;;;5050598;28;20056;-89
2022/06/12 19:05:57;;;;;;;1.13;0.98;;;25.60;69.30;;;;;;5049627;28;20029;-91
2022/06/12 19:08:24;;;;;;;0.65;0.65;;;25.60;68.90;;;;;;5049485;28;20045;-91
2022/06/12 19:10:49;;;;;;;1.02;1.00;;;25.60;69.10;;;;;;5049271;28;20021;-89
2022/06/12 19:13:15;;;;;;;1.05;1.02;;;25.60;69.20;;;;;;5050114;28;20515;-90
2022/06/12 19:15:44;;;;;;;0.22;0.22;;;25.60;69.30;;;;;;5050915;28;20021;-91
2022/06/12 19:18:12;;;;;;;0.25;0.25;;;25.60;69.20;;;;;;5051076;28;20025;-90
2022/06/12 19:20:41;;;;;;;0.43;0.43;;;25.60;69.00;;;;;;5054698;28;20022;-91
2022/06/12 19:23:07;;;;;;;;;;;25.60;69.00;;;;;;5054780;28;20033;-89
2022/06/12 19:25:33;;;;;;;1.15;1.08;;;25.60;68.80;;;;;;5051312;28;19907;-90
2022/06/12 19:27:59;;;;;;;1.55;1.15;;;25.60;69.00;;;;;;5051244;28;20083;-90
2022/06/12 19:30:27;;;;;;;0.30;0.30;;;25.60;68.80;;;;;;5051515;28;20116;-91
2022/06/12 19:32:54;;;;;;;0.15;0.15;;;25.60;68.80;;;;;;5049591;28;20033;-90
2022/06/12 19:35:20;;;;;;;0.95;0.60;;;25.50;68.40;;;;;;5047909;28;20079;-91
2022/06/12 19:37:46;;;;;;;0.38;0.38;;;25.60;69.00;;;;;;5049366;28;20029;-91
2022/06/12 19:40:16;;;;;;;0.10;0.10;;;25.60;68.60;;;;;;5037808;28;20029;-90
2022/06/12 19:42:42;;;;;;;0.68;0.68;;;25.60;68.20;;;;;;5035362;28;20131;-92
2022/06/12 19:45:13;;;;;;;0.10;0.10;;;25.50;68.00;;;;;;5034294;28;20141;-89
2022/06/12 19:47:44;;;;;;;0.47;0.47;;;25.50;68.20;;;;;;5034291;28;20032;-91
2022/06/12 19:50:12;;;;;;;0.20;0.20;;;25.50;68.50;;;;;;5033897;28;20025;-90
2022/06/12 19:52:39;;;;;;;0.28;0.28;;;25.50;68.40;;;;;;5033913;28;20377;-90
2022/06/12 19:55:06;;;;;;;0.75;0.65;;;25.60;68.70;;;;;;5034059;28;20017;-91
2022/06/12 19:57:32;;;;;;;1.70;1.55;;;25.50;68.60;;;;;;5033895;28;20476;-92
2022/06/12 19:59:58;;;;;;;0.85;0.85;;;25.50;67.60;;;;;;5035879;28;20083;-91
2022/06/12 20:02:25;;;;;;;0.32;0.32;;;25.50;67.40;;;;;;5036490;28;20029;-92
2022/06/12 20:07:35;;;;;;;0.15;0.15;;;25.50;67.20;;;;;;5036718;28;20056;-91
2022/06/12 20:10:05;;;;;;;0.52;0.52;;;25.50;67.20;;;;;;5035529;28;20029;-93
2022/06/12 20:12:33;;;;;;;0.98;0.45;;;25.40;66.80;;;;;;5035310;28;20021;-91
2022/06/12 20:14:59;;;;;;;0.32;0.32;;;25.40;66.90;;;;;;5036238;28;20037;-90
2022/06/12 20:17:25;;;;;;;0.10;0.10;;;25.40;67.10;;;;;;5035030;28;20029;-90
2022/06/12 20:19:51;;;;;;;1.10;1.00;;;25.40;66.90;;;;;;5036034;28;20033;-90
2022/06/12 20:22:18;;;;;;;0.47;0.47;;;25.40;66.90;;;;;;5036244;28;20104;-91
2022/06/12 20:24:44;;;;;;;0.75;0.75;;;25.30;67.00;;;;;;5036468;28;20052;-89
2022/06/12 20:27:10;;;;;;;0.55;0.30;;;25.30;67.20;;;;;;5035160;28;20026;-90
2022/06/12 20:29:37;;;;;;;0.08;0.08;;;25.20;67.60;;;;;;5035168;28;20018;-90
2022/06/12 20:32:03;;;;;;;0.22;0.22;;;25.20;67.70;;;;;;5034930;28;20049;-90
2022/06/12 20:34:29;;;;;;;0.47;0.38;;;25.10;68.20;;;;;;5035088;28;20052;-90
2022/06/12 20:36:55;;;;;;;0.75;0.75;;;25.10;68.70;;;;;;5034903;28;20419;-90
2022/06/12 20:39:21;;;;;;;0.50;0.45;;;25.00;68.80;;;;;;5035031;28;20022;-91
2022/06/12 20:41:46;;;;;;;2.75;1.38;;;24.90;69.00;;;;;;5035779;28;20053;-90
2022/06/12 20:44:13;;;;;;;0.10;0.10;;;24.80;69.10;;;;;;5035019;28;20075;-91
2022/06/12 20:46:39;;;;;;;0.20;0.20;;;24.70;69.30;;;;;;5034670;28;20108;-91
2022/06/12 20:49:06;;;;;;;0.10;0.10;;;24.70;69.40;;;;;;5034726;28;20048;-91
2022/06/12 20:51:32;;;;;;;0.35;0.35;;;24.60;69.80;;;;;;5034814;28;20024;-91
2022/06/12 20:53:58;;;;;;;0.10;0.10;;;24.60;70.50;;;;;;5034743;28;20021;-91
2022/06/12 20:56:24;;;;;;;0.00;0.00;;;24.60;70.20;;;;;;5035742;28;20032;-91
2022/06/12 20:58:53;;;;;;;0.38;0.38;;;24.60;70.50;;;;;;5035591;28;20488;-90
2022/06/12 21:01:19;;;;;;;0.73;0.45;;;24.50;70.50;;;;;;5035536;28;20018;-90
2022/06/12 21:03:44;;;;;;;0.55;0.52;;;24.50;70.30;;;;;;5034687;28;20036;-91
2022/06/12 21:06:10;;;;;;;0.40;0.40;;;24.50;70.40;;;;;;5034537;28;20136;-90
2022/06/12 21:08:36;;;;;;;0.32;0.32;;;24.40;70.30;;;;;;5036229;28;20025;-91
2022/06/12 21:11:01;;;;;;;0.40;0.38;;;24.40;70.20;;;;;;5040141;28;20534;-91
2022/06/12 21:13:27;;;;;;;0.77;0.77;;;24.30;70.10;;;;;;5034061;28;20029;-91
2022/06/12 21:15:53;;;;;;;1.23;0.30;;;24.30;70.20;;;;;;5034341;28;20472;-91
2022/06/12 21:18:21;;;;;;;1.08;0.60;;;24.20;69.70;;;;;;5035297;28;20025;-90
2022/06/12 21:20:47;;;;;;;0.60;0.60;;;24.10;70.20;;;;;;5035069;28;20018;-91
2022/06/12 21:23:13;;;;;;;0.55;0.20;;;24.00;70.50;;;;;;5034838;28;20034;-91
2022/06/12 21:25:42;;;;;;;0.43;0.43;;;24.00;71.00;;;;;;5034814;28;20393;-90
2022/06/12 21:28:10;;;;;;;0.10;0.10;;;23.90;71.10;;;;;;5033777;28;20025;-90
2022/06/12 21:30:36;;;;;;;0.30;0.30;;;23.90;71.10;;;;;;5033417;28;20030;-91
2022/06/12 21:33:03;;;;;;;0.52;0.22;;;23.80;71.60;;;;;;5034881;28;20399;-91
2022/06/12 21:35:29;;;;;;;0.50;0.50;;;23.70;71.80;;;;;;5033544;28;20021;-91
2022/06/12 21:37:55;;;;;;;0.47;0.47;;;23.70;72.00;;;;;;5033445;28;20022;-90
2022/06/12 21:40:21;;;;;;;0.68;0.55;;;23.60;72.70;;;;;;5033205;28;20068;-91
2022/06/12 21:42:46;;;;;;;0.57;0.57;;;23.50;72.60;;;;;;5033377;28;20121;-91
2022/06/12 21:45:14;;;;;;;0.35;0.35;;;23.40;73.60;;;;;;5033422;28;20454;-91
2022/06/12 21:47:40;;;;;;;5.57;1.27;;;23.40;74.20;;;;;;5033682;28;20116;-91
2022/06/12 21:50:08;;;;;;;0.70;0.70;;;23.40;74.00;;;;;;5033787;28;20076;-91
2022/06/12 21:55:21;;;;;;;0.93;0.93;;;23.20;74.50;;;;;;5034756;28;20032;-92
2022/06/12 21:57:47;;;;;;;0.22;0.22;;;23.10;76.30;;;;;;5034234;28;20079;-90
2022/06/12 22:00:18;;;;;;;0.00;0.00;;;23.10;75.60;;;;;;5033325;28;20030;-90
2022/06/12 22:02:45;;;;;;;0.68;0.68;;;23.10;77.40;;;;;;5032448;28;20025;-91
2022/06/12 22:05:12;;;;;;;0.55;0.55;;;23.00;77.70;;;;;;5033289;28;20407;-91
2022/06/12 22:07:38;;;;;;;0.00;0.00;;;22.90;79.60;;;;;;5034151;28;20021;-91
2022/06/12 22:10:05;;;;;;;0.13;0.13;;;22.90;77.90;;;;;;5033012;28;20029;-91
2022/06/12 22:12:30;;;;;;;0.17;0.17;;;22.80;78.50;;;;;;5034079;28;20464;-92
2022/06/12 22:14:56;;;;;;;0.20;0.13;;;22.70;78.10;;;;;;5033109;28;20033;-91
2022/06/12 22:17:22;;;;;;;0.10;0.10;;;22.70;78.50;;;;;;5032995;28;20468;-92
2022/06/12 22:19:49;;;;;;;0.22;0.22;;;22.60;78.10;;;;;;5040031;28;20029;-92
2022/06/12 22:22:14;;;;;;;0.22;0.22;;;22.60;78.90;;;;;;5032852;28;20064;-91
2022/06/12 22:24:41;;;;;;;0.50;0.50;;;22.60;77.90;;;;;;5032966;28;20186;-91
2022/06/12 22:27:08;;;;;;;0.25;0.25;;;22.50;78.90;;;;;;5033884;28;20025;-92
2022/06/12 22:29:34;;;;;;;0.00;0.00;;;22.50;78.60;;;;;;5032974;28;20376;-91
2022/06/12 22:32:01;;;;;;;0.30;0.30;;;22.50;78.60;;;;;;5033083;28;20045;-91
2022/06/12 22:34:27;;;;;;;0.82;0.82;;;22.40;79.30;;;;;;5033860;28;20021;-91
2022/06/12 22:36:53;;;;;;;0.10;0.10;;;22.40;80.50;;;;;;5032914;28;20083;-91
2022/06/12 22:39:18;;;;;;;0.25;0.25;;;22.30;80.60;;;;;;5033889;28;20018;-91
2022/06/12 22:41:44;;;;;;;0.20;0.20;;;22.30;79.60;;;;;;5032737;28;20033;-91
2022/06/12 22:44:10;;;;;;;0.75;0.45;;;22.30;80.10;;;;;;5032864;28;20105;-91
2022/06/12 22:46:35;;;;;;;0.70;0.70;;;22.30;80.30;;;;;;5032881;28;20026;-91
2022/06/12 22:49:02;;;;;;;0.00;0.00;;;22.20;80.20;;;;;;5032513;28;20392;-92
2022/06/12 22:51:28;;;;;;;0.43;0.43;;;22.20;80.40;;;;;;5032637;28;20464;-92
2022/06/12 22:53:55;;;;;;;0.00;0.00;;;22.10;80.40;;;;;;5032678;28;20057;-91
2022/06/12 22:56:21;;;;;;;0.10;0.10;;;22.00;80.30;;;;;;5032665;28;20475;-92
2022/06/12 22:58:47;;;;;;;0.88;0.85;;;22.00;80.30;;;;;;5032867;28;20048;-92
2022/06/12 23:01:16;;;;;;;0.35;0.35;;;22.00;80.30;;;;;;5032577;28;20036;-91
2022/06/12 23:03:42;;;;;;;0.45;0.35;;;21.90;80.20;;;;;;5032561;28;20038;-92
2022/06/12 23:06:08;;;;;;;0.45;0.45;;;21.90;80.10;;;;;;5033823;28;20022;-90
2022/06/12 23:08:34;;;;;;;0.30;0.20;;;21.90;80.30;;;;;;5032444;28;20037;-92
2022/06/12 23:11:00;;;;;;;0.20;0.20;;;21.90;80.10;;;;;;5034036;28;20029;-91
2022/06/12 23:13:26;;;;;;;0.65;0.65;;;21.80;79.80;;;;;;5032857;28;20025;-90
2022/06/12 23:15:51;;;;;;;0.28;0.28;;;21.80;79.60;;;;;;5037350;28;20033;-91
2022/06/12 23:18:18;;;;;;;0.52;0.52;;;21.80;79.40;;;;;;5037507;28;20562;-91
2022/06/12 23:20:43;;;;;;;0.22;0.22;;;21.80;79.20;;;;;;5035988;28;20502;-91
2022/06/12 23:23:27;;;;;;;0.45;0.40;;;21.70;79.00;;;;;;5037334;28;20033;-90
2022/06/12 23:25:55;;;;;;;0.45;0.45;;;21.70;79.20;;;;;;5036433;28;20491;-91
2022/06/12 23:28:21;;;;;;;0.20;0.20;;;21.60;79.00;;;;;;5041563;28;20029;-91
2022/06/12 23:30:49;;;;;;;0.13;0.13;;;21.60;79.00;;;;;;5035768;28;20045;-91
2022/06/12 23:33:18;;;;;;;0.22;0.22;;;21.60;79.00;;;;;;5036039;28;20017;-92
2022/06/12 23:35:46;;;;;;;0.50;0.50;;;21.60;79.00;;;;;;5037029;28;20025;-91
2022/06/12 23:38:13;;;;;;;0.57;0.57;;;21.60;79.20;;;;;;5036891;28;20036;-91
2022/06/12 23:40:39;;;;;;;0.28;0.25;;;21.60;79.50;;;;;;5036012;28;20029;-91
2022/06/12 23:43:06;;;;;;;0.20;0.20;;;21.50;79.40;;;;;;5036973;28;20530;-91
2022/06/12 23:45:32;;;;;;;0.00;0.00;;;21.50;79.80;;;;;;5035491;28;20033;-90
2022/06/12 23:47:58;;;;;;;0.25;0.25;;;21.50;79.90;;;;;;5036592;28;20464;-91
2022/06/12 23:50:24;;;;;;;0.30;0.30;;;21.50;80.60;;;;;;5036754;28;20104;-91
2022/06/12 23:52:50;;;;;;;0.57;0.57;;;21.40;80.80;;;;;;5035749;28;20028;-91
2022/06/12 23:55:16;;;;;;;0.63;0.63;;;21.40;80.80;;;;;;5035534;28;20021;-91
2022/06/12 23:57:42;;;;;;;0.15;0.15;;;21.40;81.50;;;;;;5035650;28;20033;-91
